Time;durP1;ratioP1;P1;durP2;ratioP2;P2;SDS_P1;SDS_P2;PMS_P1;PMS_P2;Temp;Humidity;BMP_temperature;BMP_pressure;BME280_temperature;BME280_humidity;BME280_pressure;Samples;Min_cycle;Max_cycle;Signal;HPM_P1;HPM_P2
2022/07/19 00:01:09;;;;;;;6.53;5.93;;;;;;;24.21;45.63;157595.44;4980854;28;20430;-75
2022/07/19 00:03:35;;;;;;;7.20;5.60;;;;;;;24.00;46.23;157541.78;4980401;28;20456;-74
2022/07/19 00:06:02;;;;;;;6.07;5.47;;;;;;;24.02;46.18;157547.00;4996701;28;20487;-75
2022/07/19 00:08:29;;;;;;;7.20;5.90;;;;;;;23.97;46.60;157532.59;4998751;28;20544;-75
2022/07/19 00:10:56;;;;;;;6.00;5.50;;;;;;;23.87;46.31;157507.78;4998080;28;20461;-75
2022/07/19 00:13:22;;;;;;;6.93;6.20;;;;;;;23.74;46.99;157472.47;4980676;28;20460;-75
2022/07/19 00:15:49;;;;;;;5.40;5.00;;;;;;;23.55;46.92;157424.09;4980314;28;20445;-75
2022/07/19 00:18:17;;;;;;;6.43;5.57;;;;;;;23.51;46.82;157414.94;4998206;28;20536;-75
2022/07/19 00:20:44;;;;;;;6.13;5.63;;;;;;;23.51;46.92;157414.94;4998330;28;20440;-74
2022/07/19 00:23:11;;;;;;;6.70;5.50;;;;;;;23.45;47.18;157397.97;4980035;28;20544;-74
2022/07/19 00:25:37;;;;;;;6.57;5.43;;;;;;;23.42;47.05;157390.13;4995070;28;20441;-74
2022/07/19 00:28:04;;;;;;;6.10;5.10;;;;;;;23.42;46.31;157390.13;4995181;28;20480;-75
2022/07/19 00:30:31;;;;;;;8.73;5.10;;;;;;;23.44;46.37;157395.34;4994673;28;20933;-74
2022/07/19 00:32:58;;;;;;;5.83;5.37;;;;;;;23.52;46.07;157416.25;4995064;28;20473;-75
2022/07/19 00:35:26;;;;;;;5.27;4.87;;;;;;;23.67;45.46;157454.19;4961051;28;20971;-75
2022/07/19 00:37:53;;;;;;;5.53;5.13;;;;;;;23.55;45.68;157424.09;4977369;28;20450;-75
2022/07/19 00:40:23;;;;;;;6.03;5.53;;;;;;;23.44;45.96;157395.34;4977474;28;20449;-75
2022/07/19 00:42:50;;;;;;;5.80;5.40;;;;;;;23.41;46.24;157387.50;4976669;28;20463;-74
2022/07/19 00:45:16;;;;;;;5.93;5.47;;;;;;;23.30;46.70;157358.72;4994700;28;20422;-74
2022/07/19 00:47:43;;;;;;;4.90;4.50;;;;;;;23.41;45.38;157387.50;4977137;28;20441;-74
2022/07/19 00:50:10;;;;;;;10.17;5.53;;;;;;;23.37;45.44;157377.06;4994385;28;20816;-75
2022/07/19 00:52:40;;;;;;;5.30;4.80;;;;;;;23.31;44.57;157361.31;4977100;28;20517;-75
2022/07/19 00:55:08;;;;;;;5.70;5.20;;;;;;;23.37;44.54;157377.06;4994484;28;20512;-74
2022/07/19 00:57:37;;;;;;;5.03;4.63;;;;;;;23.37;44.61;157377.06;4994561;28;20446;-75
2022/07/19 01:00:06;;;;;;;5.47;4.97;;;;;;;23.40;44.03;157384.91;4994134;28;20438;-75
2022/07/19 01:02:33;;;;;;;5.30;4.90;;;;;;;23.46;44.14;157401.88;4976655;28;21041;-75
2022/07/19 01:05:00;;;;;;;6.80;4.50;;;;;;;23.36;43.67;157374.38;4994171;28;20438;-74
2022/07/19 01:07:27;;;;;;;5.20;4.80;;;;;;;23.30;43.79;157358.72;4994134;28;20450;-74
2022/07/19 01:09:55;;;;;;;6.73;4.67;;;;;;;23.26;44.39;157348.25;4992631;28;20442;-74
2022/07/19 01:12:22;;;;;;;5.60;5.10;;;;;;;23.29;43.74;157356.09;4976574;28;20499;-75
2022/07/19 01:14:49;;;;;;;5.50;4.40;;;;;;;23.29;43.78;157357.41;4992562;28;20437;-74
2022/07/19 01:17:17;;;;;;;5.33;4.83;;;;;;;23.33;44.02;157366.53;4976510;28;20442;-74
2022/07/19 01:19:44;;;;;;;5.50;4.97;;;;;;;23.23;44.19;157340.41;4976228;28;20536;-75
2022/07/19 01:22:12;;;;;;;5.33;4.93;;;;;;;23.18;44.60;157327.34;4976706;28;20552;-75
2022/07/19 01:24:38;;;;;;;5.30;4.80;;;;;;;23.06;45.24;157296.00;4992523;28;20445;-75
2022/07/19 01:27:06;;;;;;;5.97;4.87;;;;;;;22.95;45.59;157269.81;4992611;28;20575;-74
2022/07/19 01:29:35;;;;;;;5.63;4.93;;;;;;;22.89;45.52;157254.16;4993919;28;20454;-75
2022/07/19 01:32:02;;;;;;;5.53;4.73;;;;;;;22.86;45.73;157246.31;4994683;28;20912;-75
2022/07/19 01:34:28;;;;;;;6.03;5.33;;;;;;;22.76;46.51;157220.22;4975696;28;20446;-75
2022/07/19 01:36:55;;;;;;;5.57;5.07;;;;;;;22.69;46.70;157200.63;4975869;28;20504;-75
2022/07/19 01:39:23;;;;;;;5.30;4.80;;;;;;;22.62;46.87;157183.56;4976193;28;20486;-75
2022/07/19 01:41:50;;;;;;;6.87;5.10;;;;;;;22.61;47.61;157180.94;4993863;28;20548;-76
2022/07/19 01:44:17;;;;;;;6.53;5.10;;;;;;;22.55;47.42;157165.28;4975943;28;20524;-75
2022/07/19 01:46:44;;;;;;;5.90;5.30;;;;;;;22.50;47.99;157152.22;4976063;28;20484;-75
2022/07/19 01:49:10;;;;;;;5.80;5.37;;;;;;;22.45;48.21;157139.16;4975894;28;20541;-75
2022/07/19 01:51:37;;;;;;;5.30;4.80;;;;;;;22.40;48.27;157126.06;4976037;28;20533;-74
2022/07/19 01:54:04;;;;;;;5.80;5.40;;;;;;;22.35;48.51;157113.00;4992341;28;20576;-75
2022/07/19 01:56:32;;;;;;;6.00;5.40;;;;;;;22.30;48.81;157099.94;4993303;28;20815;-75
2022/07/19 01:58:59;;;;;;;5.20;4.80;;;;;;;22.26;48.79;157090.84;4992324;28;20894;-75
2022/07/19 02:01:25;;;;;;;5.80;5.30;;;;;;;22.24;48.64;157085.59;4993159;28;20456;-75
2022/07/19 02:03:52;;;;;;;5.60;5.10;;;;;;;22.21;48.36;157076.47;4993508;28;20440;-76
2022/07/19 02:06:19;;;;;;;5.20;4.80;;;;;;;22.19;48.27;157072.53;4992986;28;20770;-76
2022/07/19 02:08:45;;;;;;;6.77;5.70;;;;;;;22.17;48.65;157066.00;4975616;28;20441;-76
2022/07/19 02:13:58;;;;;;;5.67;5.17;;;;;;;22.05;48.85;157034.69;4991561;28;20462;-76
2022/07/19 02:16:25;;;;;;;5.80;5.20;;;;;;;22.03;48.84;157029.47;4975061;28;20875;-76
2022/07/19 02:18:51;;;;;;;5.67;5.17;;;;;;;21.97;48.94;157015.09;4992955;28;20877;-76
2022/07/19 02:21:18;;;;;;;5.83;5.33;;;;;;;21.93;49.20;157003.31;4992251;28;20515;-77
2022/07/19 02:23:45;;;;;;;6.20;5.63;;;;;;;21.87;49.34;156987.69;4991709;28;20548;-77
2022/07/19 02:26:12;;;;;;;5.33;4.93;;;;;;;21.82;50.00;156977.16;4993020;28;20526;-76
2022/07/19 02:28:38;;;;;;;4.90;4.50;;;;;;;21.81;49.79;156974.56;4991536;28;20540;-76
2022/07/19 02:31:06;;;;;;;6.03;5.03;;;;;;;21.79;49.55;156969.31;4975436;28;20449;-76
2022/07/19 02:33:33;;;;;;;6.83;5.03;;;;;;;21.74;49.71;156956.25;4975443;28;20477;-76
2022/07/19 02:36:00;;;;;;;5.13;4.30;;;;;;;21.71;49.23;156948.44;4975709;28;20484;-76
2022/07/19 02:38:27;;;;;;;5.70;5.13;;;;;;;21.69;49.57;156941.91;4992613;28;20542;-76
2022/07/19 02:40:53;;;;;;;8.13;4.93;;;;;;;21.63;49.58;156927.53;4974075;28;20845;-76
2022/07/19 02:43:21;;;;;;;5.43;4.97;;;;;;;21.63;49.90;156927.53;4993145;28;20460;-76
2022/07/19 02:45:47;;;;;;;5.73;5.23;;;;;;;21.61;49.71;156921.00;4991134;28;20465;-77
2022/07/19 02:48:15;;;;;;;5.70;5.10;;;;;;;21.59;49.98;156917.13;4992146;28;20438;-77
2022/07/19 02:50:43;;;;;;;5.77;5.00;;;;;;;21.55;49.75;156905.38;4992377;28;20488;-76
2022/07/19 02:53:09;;;;;;;5.20;4.73;;;;;;;21.53;50.40;156900.13;4992659;28;20568;-76
2022/07/19 02:55:36;;;;;;;7.37;5.20;;;;;;;21.50;50.27;156893.59;4991275;28;20540;-76
2022/07/19 02:58:03;;;;;;;5.60;5.00;;;;;;;21.46;49.78;156883.19;4991239;28;20503;-76
2022/07/19 03:00:31;;;;;;;7.10;4.57;;;;;;;21.45;50.46;156880.53;4992182;28;20469;-76
2022/07/19 03:03:43;;;;;;;8.60;5.23;;;;;;;21.44;50.56;156877.97;4992791;28;20484;-76
2022/07/19 03:05:47;;;;;;;5.90;5.30;;;;;;;21.42;50.34;156872.72;4991950;28;20446;-77
2022/07/19 03:08:14;;;;;;;5.10;4.70;;;;;;;21.36;50.12;156857.09;4991297;28;20445;-76
2022/07/19 03:10:40;;;;;;;5.90;5.40;;;;;;;21.39;50.53;156863.59;4990593;28;20533;-76
2022/07/19 03:13:08;;;;;;;5.57;5.07;;;;;;;21.37;50.38;156858.34;4991010;28;20999;-76
2022/07/19 03:15:35;;;;;;;6.50;5.33;;;;;;;21.32;50.47;156846.63;4990767;28;20458;-76
2022/07/19 03:18:02;;;;;;;7.13;4.77;;;;;;;21.31;50.54;156842.72;4991214;28;20453;-76
2022/07/19 03:20:29;;;;;;;6.80;4.87;;;;;;;21.25;50.56;156828.34;4991783;28;20534;-76
2022/07/19 03:22:57;;;;;;;4.93;4.53;;;;;;;21.21;50.72;156819.22;4991689;28;20441;-76
2022/07/19 03:25:24;;;;;;;5.30;4.80;;;;;;;21.51;49.72;156896.22;4991691;28;20559;-76
2022/07/19 03:27:52;;;;;;;5.30;4.90;;;;;;;21.47;49.65;156885.75;4971291;28;20549;-76
2022/07/19 03:30:19;;;;;;;4.40;4.10;;;;;;;21.41;49.30;156870.13;4969495;28;20485;-76
2022/07/19 03:32:47;;;;;;;4.70;4.30;;;;;;;21.43;49.46;156875.34;4970879;28;20438;-76
2022/07/19 03:35:14;;;;;;;5.37;4.87;;;;;;;21.37;49.54;156859.66;4971664;28;20473;-76
2022/07/19 03:37:41;;;;;;;5.63;5.13;;;;;;;21.32;49.36;156846.63;4987594;28;20494;-76
2022/07/19 03:40:10;;;;;;;5.07;4.57;;;;;;;21.21;50.42;156817.91;4987215;28;20530;-76
2022/07/19 03:42:37;;;;;;;8.23;5.47;;;;;;;21.18;50.66;156811.38;4945861;28;20455;-76
2022/07/19 03:45:05;;;;;;;5.90;5.40;;;;;;;21.09;50.89;156786.59;4951716;29;20477;-76
2022/07/19 03:47:31;;;;;;;6.20;5.13;;;;;;;21.12;50.96;156795.75;4967821;28;20444;-77
2022/07/19 03:49:58;;;;;;;5.67;5.17;;;;;;;21.07;51.38;156781.38;4971270;28;20478;-76
2022/07/19 03:52:25;;;;;;;5.50;5.00;;;;;;;21.03;51.38;156772.19;4986143;28;20787;-76
2022/07/19 03:54:52;;;;;;;5.43;5.00;;;;;;;21.08;51.12;156783.97;4986894;28;20564;-76
2022/07/19 03:57:20;;;;;;;7.23;5.10;;;;;;;21.12;51.05;156794.44;4970832;28;20957;-76
2022/07/19 03:59:47;;;;;;;5.60;5.10;;;;;;;21.10;50.80;156790.50;4973289;28;20945;-76
2022/07/19 04:02:13;;;;;;;5.37;4.90;;;;;;;21.06;50.98;156778.69;4990918;28;20450;-76
2022/07/19 04:04:40;;;;;;;5.10;4.70;;;;;;;21.06;50.93;156780.06;4991323;28;20438;-76
2022/07/19 04:07:07;;;;;;;5.60;5.10;;;;;;;21.08;51.03;156783.97;4975758;28;20450;-76
2022/07/19 04:09:34;;;;;;;6.27;5.67;;;;;;;21.06;50.93;156778.69;4975954;28;20517;-76
2022/07/19 04:12:00;;;;;;;5.57;5.07;;;;;;;21.01;50.90;156766.97;4974881;28;20813;-76
2022/07/19 04:14:28;;;;;;;5.73;5.23;;;;;;;20.99;51.61;156760.44;4991136;28;20490;-76
2022/07/19 04:16:55;;;;;;;5.40;4.90;;;;;;;20.91;51.98;156740.88;4974484;28;20446;-76
2022/07/19 04:19:22;;;;;;;5.30;4.80;;;;;;;20.91;52.18;156740.88;4975732;28;20537;-76
2022/07/19 04:21:48;;;;;;;6.03;5.00;;;;;;;20.96;51.98;156752.63;4989437;28;20468;-77
2022/07/19 04:24:15;;;;;;;5.10;4.70;;;;;;;20.97;52.17;156755.25;4974607;28;20468;-76
2022/07/19 04:26:42;;;;;;;4.90;4.50;;;;;;;20.99;51.99;156761.75;4979918;28;20480;-76
2022/07/19 04:29:08;;;;;;;6.17;5.13;;;;;;;21.06;52.11;156778.69;4995164;28;20532;-75
2022/07/19 04:31:38;;;;;;;5.83;5.13;;;;;;;21.16;52.45;156804.84;4976535;28;20501;-75
2022/07/19 04:34:05;;;;;;;6.00;5.37;;;;;;;21.28;52.08;156836.19;4993789;28;20923;-75
2022/07/19 04:36:32;;;;;;;7.90;5.57;;;;;;;21.51;51.32;156896.22;4976831;28;20565;-75
2022/07/19 04:38:59;;;;;;;10.63;5.80;;;;;;;21.78;50.94;156965.41;4994610;28;20434;-75
2022/07/19 04:41:25;;;;;;;8.83;4.90;;;;;;;22.14;50.22;157058.16;4994592;28;20520;-75
2022/07/19 04:43:53;;;;;;;6.57;5.97;;;;;;;22.39;49.37;157123.47;4977715;28;20492;-75
2022/07/19 04:46:20;;;;;;;6.80;5.70;;;;;;;22.67;49.44;157196.66;4994335;28;20434;-75
2022/07/19 04:48:48;;;;;;;5.87;5.47;;;;;;;22.95;48.53;157268.56;4994912;28;20865;-75
2022/07/19 04:51:15;;;;;;;6.53;5.37;;;;;;;23.28;47.69;157353.47;4993428;28;20453;-75
2022/07/19 04:53:41;;;;;;;5.63;5.00;;;;;;;23.41;47.05;157387.50;4994941;28;20535;-75
2022/07/19 04:56:08;;;;;;;6.40;5.80;;;;;;;23.45;47.14;157397.97;4992690;28;20474;-75
2022/07/19 04:58:35;;;;;;;8.57;5.43;;;;;;;23.78;46.75;157482.91;4977067;28;21014;-75
2022/07/19 05:01:02;;;;;;;7.03;5.17;;;;;;;24.07;46.08;157560.06;4994429;28;20528;-75
2022/07/19 05:03:29;;;;;;;6.40;4.90;;;;;;;24.35;45.74;157630.75;4994894;28;20441;-76
2022/07/19 05:05:57;;;;;;;5.80;5.00;;;;;;;24.54;45.46;157680.47;4993175;28;20452;-75
2022/07/19 05:08:23;;;;;;;5.87;4.53;;;;;;;24.63;45.72;157703.97;4993077;28;20805;-75
2022/07/19 05:10:50;;;;;;;9.33;5.80;;;;;;;24.72;44.62;157727.53;4992210;28;20433;-75
2022/07/19 05:13:17;;;;;;;5.80;5.30;;;;;;;24.83;44.63;157755.06;4994379;28;20489;-75
2022/07/19 05:15:43;;;;;;;8.40;4.80;;;;;;;25.00;44.04;157800.84;4993391;28;20877;-79
2022/07/19 05:18:10;;;;;;;5.50;4.63;;;;;;;25.15;43.52;157840.09;4976702;28;20548;-79
2022/07/19 05:20:37;;;;;;;5.53;5.13;;;;;;;25.37;42.46;157896.38;4993875;28;20418;-79
2022/07/19 05:23:05;;;;;;;5.60;4.60;;;;;;;25.24;42.56;157863.66;4976679;28;20552;-80
2022/07/19 05:25:32;;;;;;;5.30;4.90;;;;;;;25.27;42.27;157871.53;4975920;28;20537;-80
2022/07/19 05:27:58;;;;;;;5.63;4.97;;;;;;;25.36;41.12;157893.78;4992410;28;20517;-80
2022/07/19 05:30:25;;;;;;;4.60;4.17;;;;;;;25.42;40.91;157910.75;5000104;28;20503;-80
2022/07/19 05:32:52;;;;;;;4.93;4.50;;;;;;;25.73;40.01;157990.69;4992049;28;20531;-81
2022/07/19 05:35:19;;;;;;;4.10;3.80;;;;;;;25.74;40.40;157991.97;4993441;28;20473;-80
2022/07/19 05:37:45;;;;;;;4.43;4.03;;;;;;;25.83;40.31;158015.53;4993743;28;20858;-80
2022/07/19 05:40:14;;;;;;;4.30;3.97;;;;;;;25.99;39.80;158057.44;4992669;28;20426;-79
2022/07/19 05:42:40;;;;;;;4.90;4.50;;;;;;;26.21;39.30;158113.81;4992053;28;20500;-79
2022/07/19 05:45:08;;;;;;;4.40;4.00;;;;;;;26.20;39.70;158111.16;4973613;28;20537;-79
2022/07/19 05:47:35;;;;;;;5.73;5.10;;;;;;;26.14;39.37;158095.44;4991410;28;20500;-80
2022/07/19 05:50:02;;;;;;;4.67;4.27;;;;;;;26.10;39.28;158084.94;4974417;28;20787;-79
2022/07/19 05:52:29;;;;;;;5.20;4.70;;;;;;;26.24;39.65;158122.94;4989838;28;20532;-79
2022/07/19 05:54:56;;;;;;;6.47;3.90;;;;;;;26.21;39.11;158113.81;4975514;28;20531;-80
2022/07/19 05:57:24;;;;;;;4.17;3.73;;;;;;;26.44;39.64;158175.34;4975374;28;20536;-80
2022/07/19 05:59:50;;;;;;;5.30;4.80;;;;;;;26.85;38.14;158280.16;4976294;28;20536;-79
2022/07/19 06:02:17;;;;;;;5.00;3.90;;;;;;;27.26;38.04;158386.28;4975255;28;20489;-80
2022/07/19 06:04:44;;;;;;;4.57;3.97;;;;;;;27.56;37.03;158466.25;4992811;28;20437;-79
2022/07/19 06:07:10;;;;;;;4.80;4.40;;;;;;;27.73;36.50;158510.84;4992744;28;20536;-80
2022/07/19 06:09:37;;;;;;;4.50;4.10;;;;;;;27.88;36.42;158547.56;4975860;28;20445;-79
2022/07/19 06:12:04;;;;;;;4.93;4.10;;;;;;;28.09;35.89;158603.94;4975021;28;20552;-79
2022/07/19 06:14:32;;;;;;;5.53;4.00;;;;;;;27.94;35.35;158563.25;4975587;28;20592;-80
2022/07/19 06:16:59;;;;;;;3.60;3.30;;;;;;;28.03;35.43;158586.91;4974673;28;20469;-80
2022/07/19 06:19:26;;;;;;;3.90;3.60;;;;;;;27.66;34.47;158492.50;4975476;28;20443;-79
2022/07/19 06:21:53;;;;;;;4.03;3.73;;;;;;;28.09;35.63;158602.66;4974373;28;20516;-79
2022/07/19 06:24:20;;;;;;;3.73;3.43;;;;;;;28.52;34.85;158714.06;4992379;28;20553;-79
2022/07/19 06:26:47;;;;;;;7.00;4.00;;;;;;;28.59;34.46;158733.78;4992453;28;20484;-79
2022/07/19 06:29:14;;;;;;;4.00;3.60;;;;;;;28.68;33.79;158757.41;4975537;28;20861;-79
2022/07/19 06:31:44;;;;;;;4.27;3.80;;;;;;;28.72;33.42;158766.59;4975073;28;20947;-79
2022/07/19 06:34:11;;;;;;;3.90;3.60;;;;;;;28.74;34.06;158773.16;4975025;28;20781;-79
2022/07/19 06:36:37;;;;;;;4.23;3.80;;;;;;;28.84;34.15;158799.38;4974934;28;20434;-79
2022/07/19 06:39:04;;;;;;;4.10;3.47;;;;;;;28.98;33.41;158836.13;4975085;28;20450;-80
2022/07/19 06:41:31;;;;;;;4.23;3.93;;;;;;;29.28;33.12;158912.28;4991778;28;20456;-79
2022/07/19 06:43:58;;;;;;;4.23;3.87;;;;;;;29.32;33.74;158922.75;4991158;28;20486;-80
2022/07/19 06:46:24;;;;;;;4.27;3.93;;;;;;;29.43;33.50;158952.94;4991402;28;20448;-81
2022/07/19 06:48:52;;;;;;;4.63;4.10;;;;;;;29.66;33.27;159011.97;4990981;28;20433;-80
2022/07/19 06:51:19;;;;;;;6.23;3.83;;;;;;;29.73;34.14;159030.38;4990973;28;20445;-79
2022/07/19 06:53:46;;;;;;;4.73;3.63;;;;;;;30.02;33.68;159106.50;4974914;28;20442;-79
2022/07/19 06:56:13;;;;;;;4.00;3.70;;;;;;;30.08;32.28;159122.25;4992032;28;20537;-80
2022/07/19 06:58:39;;;;;;;6.73;3.97;;;;;;;29.93;32.93;159082.91;4992732;28;20434;-80
2022/07/19 07:01:06;;;;;;;4.77;4.27;;;;;;;30.16;33.00;159143.25;4974233;28;20536;-80
2022/07/19 07:03:33;;;;;;;4.93;4.30;;;;;;;30.09;32.81;159124.91;4992211;28;20444;-80
2022/07/19 07:06:01;;;;;;;4.43;4.10;;;;;;;30.07;33.36;159119.66;4958757;28;20445;-81
2022/07/19 07:08:27;;;;;;;6.33;3.57;;;;;;;30.16;33.57;159143.25;4992168;28;20430;-80
2022/07/19 07:10:54;;;;;;;7.30;3.53;;;;;;;30.37;33.20;159195.84;4974739;28;20496;-80
2022/07/19 07:13:21;;;;;;;5.50;4.50;;;;;;;30.65;33.22;159270.69;4974390;28;20480;-82
2022/07/19 07:15:48;;;;;;;5.00;4.20;;;;;;;31.17;32.22;159405.97;4992326;28;21042;-82
2022/07/19 07:18:15;;;;;;;4.07;3.67;;;;;;;31.28;31.41;159433.56;4974145;28;20537;-80
2022/07/19 07:20:41;;;;;;;4.70;3.77;;;;;;;31.67;30.18;159536.06;4991601;28;20806;-80
2022/07/19 07:23:09;;;;;;;4.40;3.83;;;;;;;31.53;30.06;159499.31;4992480;28;20876;-80
2022/07/19 07:25:36;;;;;;;4.10;3.70;;;;;;;31.18;31.52;159407.28;4992353;28;20701;-81
2022/07/19 07:28:03;;;;;;;5.30;3.43;;;;;;;31.50;31.68;159490.09;4973797;28;20803;-80
2022/07/19 07:30:30;;;;;;;4.23;3.90;;;;;;;31.86;30.68;159586.00;4992085;28;20448;-80
2022/07/19 07:32:57;;;;;;;4.87;4.47;;;;;;;31.87;31.18;159587.31;4992494;28;20496;-80
2022/07/19 07:35:23;;;;;;;4.80;4.00;;;;;;;32.27;30.96;159692.50;4977809;28;20547;-80
2022/07/19 07:37:50;;;;;;;4.53;3.63;;;;;;;32.38;30.61;159721.38;4977929;28;20445;-80
2022/07/19 07:40:18;;;;;;;4.63;3.30;;;;;;;32.67;29.69;159795.09;4994462;28;20528;-80
2022/07/19 07:42:45;;;;;;;4.80;4.30;;;;;;;32.40;29.96;159725.38;4994907;28;20561;-80
2022/07/19 07:45:12;;;;;;;4.00;3.70;;;;;;;32.40;30.46;159726.69;4995691;28;20418;-80
2022/07/19 07:47:38;;;;;;;5.67;5.13;;;;;;;32.37;29.85;159717.47;4993887;28;20504;-80
2022/07/19 07:50:06;;;;;;;5.40;4.90;;;;;;;32.69;28.80;159800.31;4978005;28;20441;-83
2022/07/19 07:52:33;;;;;;;7.40;6.33;;;;;;;32.51;29.80;159755.56;4995979;28;20531;-81
2022/07/19 07:55:01;;;;;;;5.00;4.60;;;;;;;32.88;28.90;159850.28;4978072;28;20461;-81
2022/07/19 07:57:29;;;;;;;4.17;3.87;;;;;;;33.16;28.49;159923.97;4977058;28;20449;-81
2022/07/19 07:59:56;;;;;;;5.87;3.57;;;;;;;33.16;27.73;159923.97;4994369;28;20449;-80
2022/07/19 08:02:22;;;;;;;4.93;3.50;;;;;;;32.83;28.78;159838.44;4995802;28;20496;-80
2022/07/19 08:04:49;;;;;;;4.30;4.00;;;;;;;33.00;28.11;159883.16;4995133;28;20778;-81
2022/07/19 08:07:16;;;;;;;4.67;4.17;;;;;;;32.57;27.77;159770.06;4993894;28;20453;-80
2022/07/19 08:09:42;;;;;;;5.60;5.03;;;;;;;32.85;29.20;159842.41;4995337;28;20542;-80
2022/07/19 08:12:09;;;;;;;3.93;3.63;;;;;;;33.18;28.91;159929.19;4993995;28;20812;-81
2022/07/19 08:14:37;;;;;;;4.40;4.00;;;;;;;33.38;28.92;159980.50;4995086;28;20462;-81
2022/07/19 08:17:04;;;;;;;4.87;4.57;;;;;;;33.36;29.25;159976.53;4994581;28;20523;-81
2022/07/19 08:19:31;;;;;;;4.10;3.80;;;;;;;33.68;28.91;160060.78;4994969;28;20476;-81
2022/07/19 08:21:57;;;;;;;3.60;3.30;;;;;;;34.08;29.08;160163.41;4995123;28;20445;-81
2022/07/19 08:24:24;;;;;;;5.00;3.63;;;;;;;34.11;27.77;160172.66;4994995;28;20875;-81
2022/07/19 08:26:51;;;;;;;4.03;3.73;;;;;;;34.55;27.24;160285.81;4973900;28;20536;-81
2022/07/19 08:29:18;;;;;;;3.43;3.23;;;;;;;34.46;26.74;160262.13;4974124;28;20438;-81
2022/07/19 08:31:46;;;;;;;3.67;3.37;;;;;;;33.67;28.20;160056.84;4990573;28;20581;-81
2022/07/19 08:34:13;;;;;;;4.50;3.80;;;;;;;33.58;28.87;160033.16;4990175;28;20470;-81
2022/07/19 08:36:39;;;;;;;4.90;3.60;;;;;;;34.00;28.72;160143.66;4973208;28;20449;-81
2022/07/19 08:39:06;;;;;;;4.87;3.90;;;;;;;34.15;27.71;160181.88;4973810;28;20478;-81
2022/07/19 08:41:34;;;;;;;3.90;3.60;;;;;;;34.45;27.92;160259.47;4975447;28;20534;-81
2022/07/19 08:44:03;;;;;;;4.50;3.70;;;;;;;33.72;28.11;160068.66;4973842;28;20434;-81
2022/07/19 08:46:30;;;;;;;4.60;3.70;;;;;;;33.92;27.28;160122.59;4972825;28;20442;-81
2022/07/19 08:48:58;;;;;;;4.67;4.13;;;;;;;33.43;27.93;159994.97;4989850;28;20521;-81
2022/07/19 08:51:25;;;;;;;3.97;3.50;;;;;;;33.62;29.23;160045.03;4975006;28;20465;-81
2022/07/19 08:53:52;;;;;;;3.80;3.30;;;;;;;34.13;28.05;160176.56;4973663;28;21007;-81
2022/07/19 08:59:03;;;;;;;4.00;3.70;;;;;;;33.92;27.08;160121.25;4975236;28;20508;-81
2022/07/19 09:01:30;;;;;;;4.20;3.63;;;;;;;34.50;27.57;160273.94;4973768;28;20449;-81
2022/07/19 09:04:06;;;;;;;3.70;3.33;;;;;;;34.53;26.25;160280.53;4989828;28;20442;-81
2022/07/19 09:06:38;;;;;;;4.20;3.90;;;;;;;34.66;27.04;160314.78;4973150;28;20445;-81
2022/07/19 09:09:05;;;;;;;7.77;3.67;;;;;;;34.34;26.72;160230.56;4973711;28;20869;-81
2022/07/19 09:11:35;;;;;;;3.53;3.20;;;;;;;34.03;25.89;160151.53;4974709;28;20522;-81
2022/07/19 09:14:07;;;;;;;3.93;3.43;;;;;;;34.06;26.58;160158.13;4972898;28;20446;-81
2022/07/19 09:17:01;;;;;;;4.50;3.17;;;;;;;33.61;26.55;160042.38;4973187;28;20812;-81
2022/07/19 09:19:30;;;;;;;4.20;3.30;;;;;;;33.88;26.88;160110.75;4974786;28;20438;-81
2022/07/19 09:22:00;;;;;;;3.90;3.60;;;;;;;34.17;26.06;160187.13;4974443;28;20457;-81
2022/07/19 09:24:28;;;;;;;4.60;3.60;;;;;;;34.13;25.91;160177.91;4957105;28;20504;-81
2022/07/19 09:26:59;;;;;;;3.67;3.47;;;;;;;34.66;25.58;160316.09;4988957;28;20505;-81
2022/07/19 09:29:27;;;;;;;3.90;3.40;;;;;;;34.80;26.38;160351.66;4980319;28;20781;-81
2022/07/19 09:32:02;;;;;;;5.03;3.33;;;;;;;34.54;24.22;160284.50;4989441;28;20552;-81
2022/07/19 09:34:31;;;;;;;3.53;3.23;;;;;;;34.48;24.87;160268.69;4973387;28;20441;-81
2022/07/19 09:37:11;;;;;;;7.27;3.67;;;;;;;34.07;25.16;160160.81;4973107;28;20453;-82
2022/07/19 09:39:41;;;;;;;3.80;3.50;;;;;;;33.65;25.16;160052.88;4973273;28;20438;-81
2022/07/19 09:42:08;;;;;;;3.30;3.00;;;;;;;34.03;24.37;160150.22;4973959;28;20454;-81
2022/07/19 09:44:35;;;;;;;4.10;3.73;;;;;;;33.75;24.77;160077.91;4974244;28;20480;-81
2022/07/19 09:47:02;;;;;;;4.13;3.40;;;;;;;34.13;24.78;160177.91;4973856;28;20442;-81
2022/07/19 09:49:30;;;;;;;3.97;3.67;;;;;;;34.60;24.42;160300.34;4974215;28;20798;-81
2022/07/19 09:51:57;;;;;;;3.70;3.40;;;;;;;35.02;24.54;160408.25;4973073;28;20469;-81
2022/07/19 09:54:27;;;;;;;4.00;3.60;;;;;;;34.99;24.42;160400.34;4989130;28;20434;-82
2022/07/19 09:56:54;;;;;;;3.53;3.33;;;;;;;35.13;23.96;160437.28;4972433;28;20576;-81
2022/07/19 09:59:23;;;;;;;4.10;3.43;;;;;;;34.41;24.27;160248.97;4973772;28;20525;-81
2022/07/19 10:01:52;;;;;;;6.40;3.60;;;;;;;34.19;24.50;160192.38;4955457;28;20802;-82
2022/07/19 10:04:20;;;;;;;4.63;3.80;;;;;;;34.07;24.26;160160.81;4973977;28;20790;-81
2022/07/19 10:06:50;;;;;;;3.83;3.50;;;;;;;34.06;24.91;160159.50;4973534;28;20446;-81
2022/07/19 10:09:18;;;;;;;3.90;3.60;;;;;;;33.57;25.07;160031.81;4988678;28;20454;-82
2022/07/19 10:11:45;;;;;;;4.00;3.70;;;;;;;33.89;24.37;160114.69;4987560;28;20810;-81
2022/07/19 10:14:12;;;;;;;4.33;3.93;;;;;;;34.20;24.72;160196.34;4973665;28;20461;-81
2022/07/19 10:17:03;;;;;;;8.03;4.00;;;;;;;33.73;25.14;160071.31;4971910;28;20470;-82
2022/07/19 10:19:39;;;;;;;6.27;3.60;;;;;;;33.82;25.16;160096.28;4988093;28;20447;-81
2022/07/19 10:22:10;;;;;;;3.87;3.47;;;;;;;33.92;24.43;160121.25;4972376;28;20489;-81
2022/07/19 10:24:48;;;;;;;7.63;3.57;;;;;;;33.62;24.95;160045.03;4972372;28;21002;-81
2022/07/19 10:27:16;;;;;;;3.83;3.53;;;;;;;33.50;24.68;160012.06;4987930;28;20488;-81
2022/07/19 10:29:43;;;;;;;4.10;3.70;;;;;;;33.31;25.46;159963.38;4971533;28;21008;-81
2022/07/19 10:32:11;;;;;;;3.70;3.40;;;;;;;33.32;25.24;159966.03;4973225;28;20454;-81
2022/07/19 10:34:38;;;;;;;4.20;3.80;;;;;;;33.19;24.96;159931.84;4971577;28;20450;-81
2022/07/19 10:37:07;;;;;;;4.00;3.57;;;;;;;33.42;24.70;159992.34;4971654;28;20470;-81
2022/07/19 10:39:34;;;;;;;5.73;3.63;;;;;;;33.25;25.39;159947.66;4972970;28;20468;-81
2022/07/19 10:42:24;;;;;;;5.17;4.00;;;;;;;32.86;24.76;159845.00;4973417;28;20446;-81
2022/07/19 10:45:15;;;;;;;4.20;3.70;;;;;;;33.10;26.43;159908.16;4972946;28;20421;-81
2022/07/19 10:48:07;;;;;;;4.33;3.93;;;;;;;32.89;26.45;159854.22;4971706;28;20446;-81
2022/07/19 10:50:51;;;;;;;5.90;4.00;;;;;;;32.84;26.33;159841.06;4987576;28;20833;-81
2022/07/19 10:53:55;;;;;;;4.13;3.73;;;;;;;32.79;26.61;159826.59;4987863;28;20949;-81
2022/07/19 10:56:25;;;;;;;4.20;3.90;;;;;;;32.89;26.07;159852.91;4971678;28;20470;-81
2022/07/19 10:58:53;;;;;;;4.13;3.70;;;;;;;33.08;26.20;159902.91;4971257;28;20509;-81
2022/07/19 11:01:21;;;;;;;4.40;4.00;;;;;;;33.01;26.09;159884.47;4971804;28;20678;-81
2022/07/19 11:03:49;;;;;;;8.67;3.90;;;;;;;32.92;26.36;159860.78;4971584;28;20445;-82
2022/07/19 11:06:21;;;;;;;4.00;3.70;;;;;;;32.87;26.27;159848.97;4971503;28;20435;-82
2022/07/19 11:08:48;;;;;;;4.10;3.70;;;;;;;32.59;26.57;159774.06;4984108;28;20497;-81
2022/07/19 11:11:16;;;;;;;4.23;3.87;;;;;;;32.73;26.13;159810.81;4972560;28;20557;-81
2022/07/19 11:13:48;;;;;;;7.23;4.30;;;;;;;32.58;27.17;159771.41;4973050;28;20549;-81
2022/07/19 11:16:15;;;;;;;4.60;3.50;;;;;;;32.43;25.83;159734.53;4972267;28;20553;-81
2022/07/19 11:18:43;;;;;;;3.73;3.43;;;;;;;32.51;26.17;159755.56;4971330;28;20452;-81
2022/07/19 11:21:12;;;;;;;3.97;3.67;;;;;;;32.74;26.19;159813.47;4987410;28;20446;-81
2022/07/19 11:23:39;;;;;;;4.33;3.80;;;;;;;32.52;25.98;159756.88;4970406;28;20948;-81
2022/07/19 11:26:08;;;;;;;5.00;4.10;;;;;;;32.38;25.88;159720.13;4983998;28;20431;-80
2022/07/19 11:28:35;;;;;;;3.90;3.50;;;;;;;32.66;25.47;159792.44;4954241;28;20454;-81
2022/07/19 11:31:12;;;;;;;4.20;3.87;;;;;;;32.87;26.12;159848.97;4975184;28;20434;-81
2022/07/19 11:33:38;;;;;;;4.37;3.97;;;;;;;32.95;25.88;159868.69;4974199;28;20449;-81